createdAt,value
2022-11-02T00:01:58.916Z,40.83
2022-11-02T00:04:25.612Z,36.50
2022-11-02T00:06:52.255Z,42.45
2022-11-02T00:09:18.903Z,38.88
2022-11-02T00:11:45.555Z,33.72
2022-11-02T00:14:12.237Z,38.00
2022-11-02T00:16:40.199Z,33.97
2022-11-02T00:19:07.689Z,33.33
2022-11-02T00:21:35.135Z,33.58
2022-11-02T00:24:01.910Z,35.85
2022-11-02T00:26:29.334Z,35.17
2022-11-02T00:28:55.967Z,36.03
2022-11-02T00:31:22.634Z,32.38
2022-11-02T00:33:49.276Z,34.70
2022-11-02T00:36:15.992Z,32.17
2022-11-02T00:38:42.694Z,34.05
2022-11-02T00:41:09.367Z,37.25
2022-11-02T00:43:36.063Z,33.35
2022-11-02T00:46:02.668Z,32.17
2022-11-02T00:48:29.345Z,30.80
2022-11-02T00:50:56.127Z,33.13
2022-11-02T00:53:22.837Z,39.95
2022-11-02T00:55:49.478Z,29.50
2022-11-02T00:58:16.195Z,30.60
2022-11-02T01:00:42.852Z,30.88
2022-11-02T01:03:09.476Z,35.38
2022-11-02T01:05:37.029Z,36.65
2022-11-02T01:08:04.557Z,32.13
2022-11-02T01:10:31.708Z,28.35
2022-11-02T01:13:01.034Z,30.60
2022-11-02T01:15:27.832Z,32.10
2022-11-02T01:17:54.576Z,33.33
2022-11-02T01:20:21.273Z,36.20
2022-11-02T01:22:47.894Z,35.33
2022-11-02T01:25:14.599Z,34.28
2022-11-02T01:27:41.321Z,34.00
2022-11-02T01:30:08.354Z,34.10
2022-11-02T01:32:35.050Z,37.42
2022-11-02T01:35:02.931Z,40.88
2022-11-02T01:37:29.668Z,41.40
2022-11-02T01:39:56.367Z,42.92
2022-11-02T01:42:25.174Z,35.15
2022-11-02T01:44:51.882Z,35.05
2022-11-02T01:47:22.943Z,37.25
2022-11-02T01:49:52.738Z,38.20
2022-11-02T01:52:22.728Z,37.60
2022-11-02T01:54:54.391Z,42.15
2022-11-02T01:57:22.418Z,40.13
2022-11-02T02:00:03.900Z,41.25
2022-11-02T02:02:30.650Z,41.95
2022-11-02T02:05:06.731Z,38.38
2022-11-02T02:07:35.301Z,36.25
2022-11-02T02:10:02.068Z,34.53
2022-11-02T02:12:29.424Z,32.92
2022-11-02T02:14:56.140Z,35.90
2022-11-02T02:17:53.681Z,36.60
2022-11-02T02:20:39.593Z,35.30
2022-11-02T02:23:27.882Z,37.88
2022-11-02T02:26:36.698Z,42.08
2022-11-02T02:29:14.773Z,35.53
2022-11-02T02:32:07.709Z,34.70
2022-11-02T02:34:39.108Z,36.35
2022-11-02T02:37:10.105Z,33.95
2022-11-02T02:39:42.307Z,33.42
2022-11-02T02:42:34.102Z,34.05
2022-11-02T02:45:21.242Z,38.33
2022-11-02T02:48:08.226Z,34.28
2022-11-02T02:50:39.723Z,32.63
2022-11-02T02:53:07.363Z,35.85
2022-11-02T02:55:40.290Z,34.60
2022-11-02T02:58:08.352Z,26.42
2022-11-02T03:00:36.305Z,30.45
2022-11-02T03:03:04.319Z,37.95
2022-11-02T03:05:36.317Z,41.67
2022-11-02T03:08:13.787Z,43.17
2022-11-02T03:10:48.321Z,37.60
2022-11-02T03:13:33.826Z,36.45
2022-11-02T03:16:09.359Z,38.50
2022-11-02T03:18:48.003Z,33.10
2022-11-02T03:21:22.718Z,34.08
2022-11-02T03:24:27.826Z,32.45
2022-11-02T03:27:26.495Z,34.33
2022-11-02T03:29:58.697Z,33.15
2022-11-02T03:32:37.101Z,36.38
2022-11-02T03:35:07.503Z,30.85
2022-11-02T03:37:45.473Z,35.25
2022-11-02T03:40:16.864Z,28.73
2022-11-02T03:42:44.196Z,30.35
2022-11-02T03:45:14.947Z,30.33
2022-11-02T03:47:44.924Z,33.78
2022-11-02T03:50:12.507Z,26.35
2022-11-02T03:52:41.583Z,24.33
2022-11-02T03:55:09.747Z,24.23
2022-11-02T03:57:41.454Z,32.63
2022-11-02T04:00:13.235Z,26.35
2022-11-02T04:02:41.590Z,25.35
2022-11-02T04:05:09.015Z,28.38
2022-11-02T04:07:58.454Z,28.02
2022-11-02T04:10:26.280Z,44.83
2022-11-02T04:13:11.735Z,48.17
2022-11-02T04:15:38.357Z,20.80
2022-11-02T04:18:23.690Z,29.67
2022-11-02T04:20:51.287Z,35.83
2022-11-02T04:23:37.041Z,21.35
2022-11-02T04:26:04.786Z,25.48
2022-11-02T04:28:31.653Z,22.33
2022-11-02T04:30:59.827Z,25.42
2022-11-02T04:33:32.953Z,31.33
2022-11-02T04:36:04.012Z,24.00
2022-11-02T04:38:43.105Z,30.98
2022-11-02T04:41:49.236Z,22.95
2022-11-02T04:44:16.113Z,23.02
2022-11-02T04:46:44.231Z,22.60
2022-11-02T04:49:11.588Z,22.85
2022-11-02T04:51:41.108Z,23.05
2022-11-02T04:54:10.113Z,32.72
2022-11-02T04:56:36.807Z,26.48
2022-11-02T04:59:03.544Z,40.28
2022-11-02T05:01:30.846Z,36.50
2022-11-02T05:03:57.945Z,38.58
2022-11-02T05:06:25.145Z,43.20
2022-11-02T05:08:51.879Z,70.60
2022-11-02T05:11:18.786Z,546.67
2022-11-02T05:13:45.919Z,189.73
2022-11-02T05:16:15.428Z,243.30
2022-11-02T05:18:42.701Z,472.08
2022-11-02T05:21:10.851Z,821.63
2022-11-02T05:23:38.588Z,1145.68
2022-11-02T05:26:11.011Z,428.23
2022-11-02T05:28:37.681Z,623.97
2022-11-02T05:31:04.691Z,743.50
2022-11-02T05:33:31.887Z,486.88
2022-11-02T05:35:59.357Z,249.75
2022-11-02T05:38:26.946Z,362.17
2022-11-02T05:40:54.825Z,291.00
2022-11-02T05:43:21.803Z,480.48
2022-11-02T05:45:55.383Z,117.45
2022-11-02T05:48:22.911Z,194.23
2022-11-02T05:50:49.594Z,86.30
2022-11-02T05:53:16.375Z,81.68
2022-11-02T05:55:42.996Z,74.25
2022-11-02T05:58:09.736Z,89.72
2022-11-02T06:00:36.427Z,106.00
2022-11-02T06:03:03.374Z,75.70
2022-11-02T06:05:30.360Z,61.28
2022-11-02T06:08:01.386Z,55.05
2022-11-02T06:10:29.346Z,53.45
2022-11-02T06:13:01.114Z,51.15
2022-11-02T06:15:28.937Z,66.85
2022-11-02T06:17:55.648Z,49.47
2022-11-02T06:20:22.629Z,49.17
2022-11-02T06:22:49.900Z,46.53
2022-11-02T06:25:16.672Z,47.45
2022-11-02T06:27:55.122Z,53.80
2022-11-02T06:30:22.081Z,44.92
2022-11-02T06:32:49.376Z,42.67
2022-11-02T06:35:17.797Z,40.33
2022-11-02T06:37:45.376Z,36.78
2022-11-02T06:40:12.807Z,46.08
2022-11-02T06:42:45.384Z,43.75
2022-11-02T06:45:23.950Z,42.10
2022-11-02T06:47:51.031Z,42.03
2022-11-02T06:50:17.840Z,42.42
2022-11-02T06:52:45.536Z,52.75
2022-11-02T06:55:13.428Z,38.13
2022-11-02T06:57:40.816Z,42.92
2022-11-02T07:00:14.451Z,53.75
2022-11-02T07:02:47.713Z,46.58
2022-11-02T07:05:15.051Z,43.55
2022-11-02T07:07:41.668Z,42.03
2022-11-02T07:10:10.598Z,44.55
2022-11-02T07:12:37.325Z,51.13
2022-11-02T07:15:04.249Z,54.22
2022-11-02T07:17:32.338Z,55.10
2022-11-02T07:20:05.790Z,53.95
2022-11-02T07:22:38.795Z,58.92
2022-11-02T07:25:05.919Z,54.72
2022-11-02T07:27:34.600Z,57.35
2022-11-02T07:30:07.802Z,44.17
2022-11-02T07:32:44.460Z,47.40
2022-11-02T07:35:12.692Z,49.85
2022-11-02T07:37:39.699Z,49.03
2022-11-02T07:40:08.024Z,49.90
2022-11-02T07:42:35.354Z,51.45
2022-11-02T07:45:02.080Z,58.58
2022-11-02T07:47:30.283Z,61.42
2022-11-02T07:49:59.642Z,53.92
2022-11-02T07:52:26.268Z,56.50
2022-11-02T07:54:52.883Z,65.50
2022-11-02T07:57:19.824Z,60.03
2022-11-02T07:59:46.452Z,63.08
2022-11-02T08:02:13.810Z,63.22
2022-11-02T08:04:43.890Z,52.33
2022-11-02T08:07:12.640Z,54.72
2022-11-02T08:09:39.423Z,40.35
2022-11-02T08:12:06.432Z,52.58
2022-11-02T08:14:33.111Z,52.38
2022-11-02T08:16:59.730Z,35.63
2022-11-02T08:19:26.351Z,40.05
2022-11-02T08:21:53.068Z,39.80
2022-11-02T08:24:19.783Z,31.17
2022-11-02T08:26:47.565Z,31.17
2022-11-02T08:29:16.394Z,34.35
2022-11-02T08:31:43.025Z,30.10
2022-11-02T08:34:12.002Z,28.42
2022-11-02T08:39:05.373Z,28.08
2022-11-02T08:41:31.981Z,39.05
2022-11-02T08:43:59.106Z,31.15
2022-11-02T08:46:25.811Z,27.52
2022-11-02T08:48:52.518Z,41.03
2022-11-02T08:51:19.218Z,29.20
2022-11-02T08:53:51.213Z,25.80
2022-11-02T08:56:18.523Z,29.10
2022-11-02T08:58:45.184Z,29.00
2022-11-02T09:01:11.869Z,30.63
2022-11-02T09:03:38.575Z,29.00
2022-11-02T09:06:05.331Z,33.17
2022-11-02T09:08:33.321Z,35.55
2022-11-02T09:11:02.815Z,36.03
2022-11-02T09:13:29.739Z,31.95
2022-11-02T09:15:58.380Z,34.35
2022-11-02T09:18:25.023Z,35.60
2022-11-02T09:20:51.864Z,26.95
2022-11-02T09:23:20.516Z,29.38
2022-11-02T09:25:48.000Z,26.75
2022-11-02T09:28:15.672Z,40.85
2022-11-02T09:30:42.674Z,39.42
2022-11-02T09:33:10.173Z,30.25
2022-11-02T09:35:39.175Z,34.90
2022-11-02T09:38:05.839Z,45.65
2022-11-02T09:40:38.261Z,38.83
2022-11-02T09:43:19.408Z,33.17
2022-11-02T09:46:06.789Z,37.92
2022-11-02T09:48:49.763Z,31.48
2022-11-02T09:51:19.959Z,31.55
2022-11-02T09:54:17.296Z,36.60
2022-11-02T09:56:45.299Z,25.27
2022-11-02T09:59:17.695Z,27.85
2022-11-02T10:02:03.738Z,28.75
2022-11-02T10:05:21.200Z,32.72
2022-11-02T10:08:23.624Z,31.40
2022-11-02T10:10:54.304Z,31.73
2022-11-02T10:13:44.108Z,35.78
2022-11-02T10:16:19.847Z,26.63
2022-11-02T10:18:50.320Z,29.77
2022-11-02T10:21:31.708Z,25.58
2022-11-02T10:24:01.689Z,35.80
2022-11-02T10:26:30.081Z,29.67
2022-11-02T10:29:03.685Z,28.08
2022-11-02T10:31:32.706Z,30.75
2022-11-02T10:34:19.021Z,30.55
2022-11-02T10:36:55.729Z,40.90
2022-11-02T10:39:22.393Z,34.83
2022-11-02T10:41:54.502Z,24.67
2022-11-02T10:44:31.168Z,27.33
2022-11-02T10:47:20.642Z,24.58
2022-11-02T10:50:15.034Z,32.15
2022-11-02T10:52:43.960Z,23.25
2022-11-02T10:55:27.539Z,22.10
2022-11-02T10:57:56.075Z,23.30
2022-11-02T11:00:34.153Z,23.35
2022-11-02T11:03:16.622Z,26.52
2022-11-02T11:05:56.381Z,24.80
2022-11-02T11:08:32.113Z,20.45
2022-11-02T11:11:15.773Z,25.33
2022-11-02T11:16:38.623Z,17.42
2022-11-02T11:21:53.488Z,26.70
2022-11-02T11:24:31.709Z,20.90
2022-11-02T11:27:04.466Z,22.50
2022-11-02T11:29:33.704Z,23.52
2022-11-02T11:32:01.637Z,26.73
2022-11-02T11:34:33.780Z,30.15
2022-11-02T11:37:14.982Z,34.08
2022-11-02T11:39:44.207Z,26.45
2022-11-02T11:42:21.925Z,27.30
2022-11-02T11:45:00.278Z,23.98
2022-11-02T11:47:29.838Z,27.48
2022-11-02T11:50:17.703Z,57.53
2022-11-02T11:52:44.589Z,41.15
2022-11-02T11:55:31.929Z,35.20
2022-11-02T11:58:06.939Z,31.98
2022-11-02T12:00:34.623Z,23.60
2022-11-02T12:03:07.414Z,22.67
2022-11-02T12:05:50.458Z,23.35
2022-11-02T12:08:44.676Z,26.80
2022-11-02T12:11:26.272Z,24.00
2022-11-02T12:13:58.138Z,22.02
2022-11-02T12:16:34.000Z,20.60
2022-11-02T12:19:21.366Z,25.92
2022-11-02T12:22:24.376Z,28.95
2022-11-02T12:24:56.915Z,23.48
2022-11-02T12:27:49.583Z,27.20
2022-11-02T12:30:19.315Z,23.48
2022-11-02T12:33:18.848Z,26.05
2022-11-02T12:36:02.299Z,25.70
2022-11-02T12:38:53.657Z,32.33
2022-11-02T12:41:30.048Z,25.15
2022-11-02T12:44:09.574Z,24.83
2022-11-02T12:46:48.566Z,31.17
2022-11-02T12:49:42.064Z,43.45
2022-11-02T12:52:33.712Z,22.50
2022-11-02T12:55:02.768Z,29.75
2022-11-02T12:57:33.616Z,26.10
2022-11-02T13:00:02.277Z,30.20
2022-11-02T13:05:13.805Z,34.40
2022-11-02T13:07:45.911Z,20.95
2022-11-02T13:10:18.129Z,30.25
2022-11-02T13:12:46.175Z,22.60
2022-11-02T13:15:20.862Z,24.17
2022-11-02T13:20:19.340Z,27.33
2022-11-02T13:23:08.583Z,34.28
2022-11-02T13:25:40.117Z,22.98
2022-11-02T13:28:14.224Z,26.15
2022-11-02T13:30:42.113Z,19.73
2022-11-02T13:33:16.527Z,24.63
2022-11-02T13:35:43.542Z,20.15
2022-11-02T13:38:13.046Z,16.83
2022-11-02T13:40:48.918Z,20.30
2022-11-02T13:43:33.705Z,20.65
2022-11-02T13:46:06.703Z,20.50
2022-11-02T13:48:40.540Z,18.67
2022-11-02T13:51:25.335Z,17.77
2022-11-02T13:54:19.009Z,16.60
2022-11-02T13:56:46.224Z,22.00
2022-11-02T13:59:43.107Z,33.17
2022-11-02T14:02:15.059Z,23.88
2022-11-02T14:04:42.585Z,24.08
2022-11-02T14:07:22.318Z,21.15
2022-11-02T14:09:48.993Z,27.00
2022-11-02T14:12:21.723Z,25.45
2022-11-02T14:15:12.774Z,27.50
2022-11-02T14:18:02.277Z,23.00
2022-11-02T14:20:32.244Z,20.85
2022-11-02T14:23:11.260Z,17.58
2022-11-02T14:25:47.025Z,20.27
2022-11-02T14:28:25.846Z,24.65
2022-11-02T14:30:55.558Z,23.35
2022-11-02T14:33:50.200Z,22.60
2022-11-02T14:36:16.820Z,28.48
2022-11-02T14:38:52.925Z,20.73
2022-11-02T14:41:23.722Z,27.90
2022-11-02T14:44:00.240Z,38.05
2022-11-02T14:46:51.227Z,23.40
2022-11-02T14:49:29.773Z,25.65
2022-11-02T14:52:04.224Z,28.33
2022-11-02T14:54:53.767Z,21.88
2022-11-02T14:57:38.444Z,21.20
2022-11-02T15:00:17.023Z,29.23
2022-11-02T15:02:43.913Z,32.45
2022-11-02T15:05:23.133Z,43.88
2022-11-02T15:07:53.229Z,22.95
2022-11-02T15:10:22.580Z,37.15
2022-11-02T15:12:49.614Z,33.80
2022-11-02T15:15:36.387Z,33.30
2022-11-02T15:18:28.156Z,17.23
2022-11-02T15:21:10.321Z,22.83
2022-11-02T15:23:55.698Z,34.17
2022-11-02T15:26:35.565Z,34.70
2022-11-02T15:29:07.235Z,30.67
2022-11-02T15:31:34.908Z,25.48
2022-11-02T15:34:12.297Z,37.53
2022-11-02T15:36:39.718Z,30.70
2022-11-02T15:39:11.126Z,21.95
2022-11-02T15:42:05.368Z,23.80
2022-11-02T15:45:05.407Z,45.45
2022-11-02T15:47:46.773Z,42.25
2022-11-02T15:50:19.561Z,47.80
2022-11-02T15:53:22.182Z,37.45
2022-11-02T15:55:59.390Z,25.73
2022-11-02T15:58:33.493Z,44.15
2022-11-02T16:01:19.454Z,31.95
2022-11-02T16:03:58.286Z,44.75
2022-11-02T16:06:33.879Z,42.00
2022-11-02T16:09:01.543Z,30.70
2022-11-02T16:11:28.844Z,45.17
2022-11-02T16:14:15.866Z,44.15
2022-11-02T16:16:49.752Z,31.58
2022-11-02T16:19:19.465Z,43.40
2022-11-02T16:21:46.484Z,33.97
2022-11-02T16:24:13.399Z,35.97
2022-11-02T16:26:42.441Z,43.78
2022-11-02T16:29:10.219Z,44.50
2022-11-02T16:31:36.965Z,55.42
2022-11-02T16:34:31.177Z,49.35
2022-11-02T16:36:58.134Z,52.65
2022-11-02T16:39:36.602Z,60.88
2022-11-02T16:42:10.005Z,53.00
2022-11-02T16:44:36.778Z,55.25
2022-11-02T16:47:12.354Z,56.78
2022-11-02T16:49:51.083Z,67.60
2022-11-02T16:52:26.050Z,76.70
2022-11-02T16:54:52.719Z,62.33
2022-11-02T16:57:25.103Z,64.25
2022-11-02T16:59:54.213Z,49.67
2022-11-02T17:02:31.893Z,61.67
2022-11-02T17:05:02.615Z,61.97
2022-11-02T17:07:39.206Z,56.42
2022-11-02T17:10:07.585Z,53.63
2022-11-02T17:12:39.407Z,71.80
2022-11-02T17:15:23.684Z,47.20
2022-11-02T17:17:50.739Z,41.88
2022-11-02T17:20:22.964Z,42.47
2022-11-02T17:23:01.545Z,41.08
2022-11-02T17:25:33.492Z,31.27
2022-11-02T17:28:02.502Z,50.40
2022-11-02T17:30:35.373Z,35.60
2022-11-02T17:33:24.832Z,55.53
2022-11-02T17:35:53.356Z,59.33
2022-11-02T17:38:26.652Z,32.60
2022-11-02T17:40:54.034Z,36.33
2022-11-02T17:43:21.900Z,29.25
2022-11-02T17:46:00.967Z,32.67
2022-11-02T17:48:31.292Z,21.27
2022-11-02T17:51:00.020Z,31.23
2022-11-02T17:53:27.070Z,31.13
2022-11-02T17:55:54.512Z,30.15
2022-11-02T17:58:21.220Z,29.88
2022-11-02T18:00:47.986Z,43.20
2022-11-02T18:03:17.511Z,42.60
2022-11-02T18:05:48.348Z,43.03
2022-11-02T18:08:16.993Z,38.25
2022-11-02T18:10:45.292Z,46.72
2022-11-02T18:13:16.398Z,48.65
2022-11-02T18:15:43.429Z,42.33
2022-11-02T18:18:10.387Z,52.95
2022-11-02T18:20:41.505Z,53.95
2022-11-02T18:23:15.089Z,45.80
2022-11-02T18:25:41.739Z,59.78
2022-11-02T18:28:08.672Z,50.17
2022-11-02T18:30:35.403Z,58.40
2022-11-02T18:33:02.999Z,38.90
2022-11-02T18:35:29.798Z,37.00
2022-11-02T18:37:56.761Z,46.45
2022-11-02T18:40:23.515Z,55.30
2022-11-02T18:42:50.167Z,61.72
2022-11-02T18:45:16.988Z,46.60
2022-11-02T18:47:43.836Z,51.33
2022-11-02T18:50:11.998Z,57.92
2022-11-02T18:52:38.854Z,44.92
2022-11-02T18:55:05.973Z,45.03
2022-11-02T18:57:33.232Z,61.42
2022-11-02T19:00:02.553Z,84.93
2022-11-02T19:02:29.560Z,39.60
2022-11-02T19:04:56.373Z,47.33
2022-11-02T19:07:41.894Z,51.75
2022-11-02T19:10:09.011Z,52.67
2022-11-02T19:12:35.982Z,37.85
2022-11-02T19:15:02.817Z,62.28
2022-11-02T19:17:29.604Z,59.92
2022-11-02T19:19:56.600Z,42.35
2022-11-02T19:22:26.579Z,60.65
2022-11-02T19:24:53.525Z,50.88
2022-11-02T19:27:22.257Z,59.33
2022-11-02T19:29:49.076Z,46.45
2022-11-02T19:32:16.102Z,58.45
2022-11-02T19:34:45.744Z,47.53
2022-11-02T19:37:13.029Z,56.50
2022-11-02T19:39:39.860Z,61.45
2022-11-02T19:42:07.576Z,62.20
2022-11-02T19:44:39.629Z,42.08
2022-11-02T19:47:09.376Z,64.03
2022-11-02T19:49:36.049Z,55.80
2022-11-02T19:52:02.723Z,56.70
2022-11-02T19:54:29.344Z,61.72
2022-11-02T19:56:56.016Z,54.60
2022-11-02T19:59:22.706Z,44.75
2022-11-02T20:01:50.821Z,52.30
2022-11-02T20:04:17.821Z,50.35
2022-11-02T20:06:44.922Z,42.45
2022-11-02T20:09:16.936Z,50.50
2022-11-02T20:11:44.774Z,47.80
2022-11-02T20:14:12.841Z,49.22
2022-11-02T20:16:39.746Z,33.67
2022-11-02T20:19:06.815Z,39.85
2022-11-02T20:21:38.285Z,58.88
2022-11-02T20:24:09.573Z,58.92
2022-11-02T20:26:37.460Z,55.20
2022-11-02T20:29:05.171Z,54.95
2022-11-02T20:31:37.244Z,44.70
2022-11-02T20:34:06.535Z,47.58
2022-11-02T20:36:34.692Z,45.78
2022-11-02T20:39:04.237Z,51.15
2022-11-02T20:41:31.072Z,42.25
2022-11-02T20:43:57.778Z,45.20
2022-11-02T20:46:43.281Z,34.35
2022-11-02T20:49:21.991Z,41.38
2022-11-02T20:51:58.723Z,44.63
2022-11-02T20:54:26.630Z,45.90
2022-11-02T20:56:53.261Z,37.35
2022-11-02T20:59:19.886Z,39.67
2022-11-02T21:01:46.637Z,36.33
2022-11-02T21:04:19.688Z,45.72
2022-11-02T21:06:47.932Z,43.22
2022-11-02T21:09:14.633Z,40.95
2022-11-02T21:11:59.680Z,42.60
2022-11-02T21:14:26.333Z,38.55
2022-11-02T21:16:52.998Z,39.72
2022-11-02T21:19:19.706Z,47.92
2022-11-02T21:21:46.339Z,45.03
2022-11-02T21:24:13.013Z,46.03
2022-11-02T21:26:39.627Z,41.97
2022-11-02T21:29:06.320Z,39.65
2022-11-02T21:31:32.970Z,45.15
2022-11-02T21:33:59.659Z,36.65
2022-11-02T21:36:26.297Z,39.90
2022-11-02T21:38:53.018Z,41.78
2022-11-02T21:41:22.192Z,36.30
2022-11-02T21:43:52.040Z,33.78
2022-11-02T21:46:19.929Z,34.38
2022-11-02T21:48:46.758Z,36.63
2022-11-02T21:51:18.868Z,35.75
2022-11-02T21:53:46.586Z,29.15
2022-11-02T21:56:14.697Z,43.50
2022-11-02T21:58:44.851Z,36.13
2022-11-02T22:01:45.356Z,41.72
2022-11-02T22:04:19.640Z,31.80
2022-11-02T22:06:46.370Z,34.30
2022-11-02T22:09:13.412Z,44.95
2022-11-02T22:11:40.527Z,38.47
2022-11-02T22:14:07.194Z,49.75
2022-11-02T22:16:38.954Z,40.35
2022-11-02T22:19:07.643Z,44.03
2022-11-02T22:21:36.631Z,42.50
2022-11-02T22:24:04.259Z,58.78
2022-11-02T22:26:31.904Z,45.42
2022-11-02T22:29:00.956Z,46.60
2022-11-02T22:31:39.895Z,57.78
2022-11-02T22:34:08.297Z,53.15
2022-11-02T22:36:35.420Z,48.05
2022-11-02T22:39:05.784Z,41.42
2022-11-02T22:41:39.216Z,43.88
2022-11-02T22:44:11.161Z,42.72
2022-11-02T22:46:39.847Z,39.17
2022-11-02T22:49:07.780Z,43.38
2022-11-02T22:51:40.251Z,44.15
2022-11-02T22:54:09.113Z,41.20
2022-11-02T22:56:36.053Z,29.25
2022-11-02T22:59:03.508Z,36.65
2022-11-02T23:01:31.084Z,25.25
2022-11-02T23:03:58.466Z,22.83
2022-11-02T23:06:25.659Z,24.77
2022-11-02T23:08:53.695Z,27.15
2022-11-02T23:11:23.258Z,25.58
2022-11-02T23:13:56.682Z,24.38
2022-11-02T23:16:34.646Z,32.72
2022-11-02T23:19:27.628Z,34.50
2022-11-02T23:22:21.031Z,24.63
2022-11-02T23:25:12.875Z,35.58
2022-11-02T23:28:16.984Z,40.60
2022-11-02T23:31:02.458Z,29.10
2022-11-02T23:33:31.024Z,39.47
2022-11-02T23:36:12.418Z,39.10
2022-11-02T23:38:58.453Z,36.28
2022-11-02T23:41:25.596Z,39.95
2022-11-02T23:44:11.327Z,33.67
2022-11-02T23:46:39.320Z,114.30
2022-11-02T23:49:05.999Z,394.40
2022-11-02T23:51:51.227Z,312.65
2022-11-02T23:54:36.780Z,344.48
2022-11-02T23:57:03.481Z,428.73
2022-11-02T23:59:30.139Z,426.50
